sensor_id;sensor_type;location;lat;lon;timestamp;pressure;altitude;pressure_sealevel;temperature;humidity
10261;BME280;5175;42.606;23.388;2023-11-19T00:02:20;93658.94;;;2.84;100.00
10261;BME280;5175;42.606;23.388;2023-11-19T00:04:47;93664.84;;;2.91;100.00
10261;BME280;5175;42.606;23.388;2023-11-19T00:07:14;93646.59;;;2.73;100.00
10261;BME280;5175;42.606;23.388;2023-11-19T00:09:41;93669.78;;;2.88;100.00
10261;BME280;5175;42.606;23.388;2023-11-19T00:12:09;93673.09;;;2.95;100.00
10261;BME280;5175;42.606;23.388;2023-11-19T00:14:35;93670.38;;;2.90;100.00
10261;BME280;5175;42.606;23.388;2023-11-19T00:17:02;93658.38;;;2.82;100.00
10261;BME280;5175;42.606;23.388;2023-11-19T00:19:31;93665.66;;;2.92;100.00
10261;BME280;5175;42.606;23.388;2023-11-19T00:21:58;93668.59;;;2.95;100.00
10261;BME280;5175;42.606;23.388;2023-11-19T00:24:28;93670.38;;;2.90;100.00
10261;BME280;5175;42.606;23.388;2023-11-19T00:26:55;93668.31;;;2.80;100.00
10261;BME280;5175;42.606;23.388;2023-11-19T00:29:22;93666.38;;;2.87;100.00
10261;BME280;5175;42.606;23.388;2023-11-19T00:31:49;93678.38;;;2.83;100.00
10261;BME280;5175;42.606;23.388;2023-11-19T00:34:15;93676.56;;;2.84;100.00
10261;BME280;5175;42.606;23.388;2023-11-19T00:36:48;93690.50;;;2.96;100.00
10261;BME280;5175;42.606;23.388;2023-11-19T00:39:14;93686.63;;;2.87;100.00
10261;BME280;5175;42.606;23.388;2023-11-19T00:41:41;93679.56;;;2.76;100.00
10261;BME280;5175;42.606;23.388;2023-11-19T00:44:08;93683.84;;;2.93;100.00
10261;BME280;5175;42.606;23.388;2023-11-19T00:46:34;93673.31;;;2.93;100.00
10261;BME280;5175;42.606;23.388;2023-11-19T00:49:02;93691.84;;;2.98;100.00
10261;BME280;5175;42.606;23.388;2023-11-19T00:51:29;93687.91;;;2.84;100.00
10261;BME280;5175;42.606;23.388;2023-11-19T00:53:58;93685.28;;;2.73;100.00
10261;BME280;5175;42.606;23.388;2023-11-19T00:56:26;93686.78;;;2.69;100.00
10261;BME280;5175;42.606;23.388;2023-11-19T00:58:53;93700.53;;;2.71;100.00
10261;BME280;5175;42.606;23.388;2023-11-19T01:01:20;93693.63;;;2.81;100.00
10261;BME280;5175;42.606;23.388;2023-11-19T01:03:47;93694.66;;;2.80;100.00
10261;BME280;5175;42.606;23.388;2023-11-19T01:06:13;93697.72;;;2.89;100.00
10261;BME280;5175;42.606;23.388;2023-11-19T01:08:43;93711.81;;;2.83;100.00
10261;BME280;5175;42.606;23.388;2023-11-19T01:11:20;93696.63;;;2.85;100.00
10261;BME280;5175;42.606;23.388;2023-11-19T01:13:47;93691.56;;;2.83;100.00
10261;BME280;5175;42.606;23.388;2023-11-19T01:16:14;93703.59;;;2.79;100.00
10261;BME280;5175;42.606;23.388;2023-11-19T01:18:41;93695.72;;;2.79;100.00
10261;BME280;5175;42.606;23.388;2023-11-19T01:21:07;93689.63;;;2.79;100.00
10261;BME280;5175;42.606;23.388;2023-11-19T01:23:34;93685.97;;;2.80;100.00
10261;BME280;5175;42.606;23.388;2023-11-19T01:26:02;93692.03;;;2.80;100.00
10261;BME280;5175;42.606;23.388;2023-11-19T01:28:32;93694.91;;;2.67;100.00
10261;BME280;5175;42.606;23.388;2023-11-19T01:30:58;93694.91;;;2.67;100.00
10261;BME280;5175;42.606;23.388;2023-11-19T01:33:25;93699.25;;;2.73;100.00
10261;BME280;5175;42.606;23.388;2023-11-19T01:35:53;93700.06;;;2.74;100.00
10261;BME280;5175;42.606;23.388;2023-11-19T01:38:19;93699.28;;;2.62;100.00
10261;BME280;5175;42.606;23.388;2023-11-19T01:40:46;93701.69;;;2.63;100.00
10261;BME280;5175;42.606;23.388;2023-11-19T01:43:32;93698.69;;;2.71;100.00
10261;BME280;5175;42.606;23.388;2023-11-19T01:45:59;93703.72;;;2.73;100.00
10261;BME280;5175;42.606;23.388;2023-11-19T01:48:26;93706.47;;;2.78;100.00
10261;BME280;5175;42.606;23.388;2023-11-19T01:50:53;93699.00;;;2.86;100.00
10261;BME280;5175;42.606;23.388;2023-11-19T01:53:20;93695.59;;;2.63;100.00
10261;BME280;5175;42.606;23.388;2023-11-19T01:55:47;93713.75;;;2.99;100.00
10261;BME280;5175;42.606;23.388;2023-11-19T01:58:14;93719.63;;;2.78;100.00
10261;BME280;5175;42.606;23.388;2023-11-19T02:00:44;93717.50;;;2.63;100.00
10261;BME280;5175;42.606;23.388;2023-11-19T02:03:11;93697.25;;;2.40;100.00
10261;BME280;5175;42.606;23.388;2023-11-19T02:05:39;93707.31;;;2.67;100.00
10261;BME280;5175;42.606;23.388;2023-11-19T02:08:06;93710.97;;;2.66;100.00
10261;BME280;5175;42.606;23.388;2023-11-19T02:10:33;93682.34;;;2.58;100.00
10261;BME280;5175;42.606;23.388;2023-11-19T02:13:00;93683.72;;;2.60;100.00
10261;BME280;5175;42.606;23.388;2023-11-19T02:15:27;93691.47;;;2.78;100.00
10261;BME280;5175;42.606;23.388;2023-11-19T02:17:55;93698.44;;;2.73;100.00
10261;BME280;5175;42.606;23.388;2023-11-19T02:20:22;93691.25;;;2.80;100.00
10261;BME280;5175;42.606;23.388;2023-11-19T02:22:50;93699.63;;;2.65;100.00
10261;BME280;5175;42.606;23.388;2023-11-19T02:25:20;93697.88;;;2.71;100.00
10261;BME280;5175;42.606;23.388;2023-11-19T02:27:53;93700.41;;;2.77;100.00
10261;BME280;5175;42.606;23.388;2023-11-19T02:30:22;93703.81;;;2.78;100.00
10261;BME280;5175;42.606;23.388;2023-11-19T02:32:52;93706.50;;;2.66;100.00
10261;BME280;5175;42.606;23.388;2023-11-19T02:35:18;93702.28;;;2.53;100.00
10261;BME280;5175;42.606;23.388;2023-11-19T02:37:47;93697.47;;;2.50;100.00
10261;BME280;5175;42.606;23.388;2023-11-19T02:40:14;93693.72;;;2.46;100.00
10261;BME280;5175;42.606;23.388;2023-11-19T02:42:41;93696.00;;;2.43;100.00
10261;BME280;5175;42.606;23.388;2023-11-19T02:45:10;93692.56;;;2.19;100.00
10261;BME280;5175;42.606;23.388;2023-11-19T02:47:39;93686.41;;;2.25;100.00
10261;BME280;5175;42.606;23.388;2023-11-19T02:50:08;93687.19;;;2.37;100.00
10261;BME280;5175;42.606;23.388;2023-11-19T02:52:39;93688.91;;;2.32;100.00
10261;BME280;5175;42.606;23.388;2023-11-19T02:55:06;93687.66;;;2.23;100.00
10261;BME280;5175;42.606;23.388;2023-11-19T02:57:35;93696.00;;;2.20;100.00
10261;BME280;5175;42.606;23.388;2023-11-19T03:00:02;93696.47;;;2.28;100.00
10261;BME280;5175;42.606;23.388;2023-11-19T03:02:39;93695.19;;;2.42;100.00
10261;BME280;5175;42.606;23.388;2023-11-19T03:05:10;93695.19;;;2.42;100.00
10261;BME280;5175;42.606;23.388;2023-11-19T03:07:37;93695.53;;;2.34;100.00
10261;BME280;5175;42.606;23.388;2023-11-19T03:10:04;93699.66;;;2.30;100.00
10261;BME280;5175;42.606;23.388;2023-11-19T03:12:32;93695.53;;;2.34;100.00
10261;BME280;5175;42.606;23.388;2023-11-19T03:14:58;93695.97;;;2.31;100.00
10261;BME280;5175;42.606;23.388;2023-11-19T03:17:25;93709.28;;;2.25;100.00
10261;BME280;5175;42.606;23.388;2023-11-19T03:19:53;93723.47;;;2.35;100.00
10261;BME280;5175;42.606;23.388;2023-11-19T03:22:20;93717.25;;;2.41;100.00
10261;BME280;5175;42.606;23.388;2023-11-19T03:24:47;93727.00;;;2.41;100.00
10261;BME280;5175;42.606;23.388;2023-11-19T03:27:13;93719.09;;;2.29;100.00
10261;BME280;5175;42.606;23.388;2023-11-19T03:29:40;93717.75;;;2.38;100.00
10261;BME280;5175;42.606;23.388;2023-11-19T03:32:07;93720.50;;;2.43;100.00
10261;BME280;5175;42.606;23.388;2023-11-19T03:34:33;93711.66;;;2.49;100.00
10261;BME280;5175;42.606;23.388;2023-11-19T03:37:01;93712.47;;;2.50;100.00
10261;BME280;5175;42.606;23.388;2023-11-19T03:39:29;93714.53;;;2.48;100.00
10261;BME280;5175;42.606;23.388;2023-11-19T03:41:55;93716.50;;;2.41;100.00
10261;BME280;5175;42.606;23.388;2023-11-19T03:44:22;93716.25;;;2.54;100.00
10261;BME280;5175;42.606;23.388;2023-11-19T03:46:51;93727.31;;;2.68;100.00
10261;BME280;5175;42.606;23.388;2023-11-19T03:49:18;93724.38;;;2.64;100.00
10261;BME280;5175;42.606;23.388;2023-11-19T03:51:45;93725.28;;;2.58;100.00
10261;BME280;5175;42.606;23.388;2023-11-19T03:54:13;93737.19;;;2.61;100.00
10261;BME280;5175;42.606;23.388;2023-11-19T03:56:40;93740.84;;;2.60;100.00
10261;BME280;5175;42.606;23.388;2023-11-19T03:59:07;93737.28;;;2.66;100.00
10261;BME280;5175;42.606;23.388;2023-11-19T04:01:35;93735.25;;;2.56;100.00
10261;BME280;5175;42.606;23.388;2023-11-19T04:04:03;93742.91;;;2.69;100.00
10261;BME280;5175;42.606;23.388;2023-11-19T04:06:29;93743.25;;;2.61;100.00
10261;BME280;5175;42.606;23.388;2023-11-19T04:08:57;93743.81;;;2.63;100.00
10261;BME280;5175;42.606;23.388;2023-11-19T04:11:25;93753.88;;;2.54;100.00
10261;BME280;5175;42.606;23.388;2023-11-19T04:13:51;93746.59;;;2.57;100.00
10261;BME280;5175;42.606;23.388;2023-11-19T04:16:18;93756.19;;;2.63;100.00
10261;BME280;5175;42.606;23.388;2023-11-19T04:18:45;93756.53;;;2.43;100.00
10261;BME280;5175;42.606;23.388;2023-11-19T04:21:11;93754.59;;;2.38;100.00
10261;BME280;5175;42.606;23.388;2023-11-19T04:23:38;93768.91;;;2.31;100.00
10261;BME280;5175;42.606;23.388;2023-11-19T04:26:05;93751.84;;;2.33;100.00
10261;BME280;5175;42.606;23.388;2023-11-19T04:28:33;93753.56;;;2.28;100.00
10261;BME280;5175;42.606;23.388;2023-11-19T04:31:00;93753.44;;;2.34;100.00
10261;BME280;5175;42.606;23.388;2023-11-19T04:33:28;93758.38;;;2.42;100.00
10261;BME280;5175;42.606;23.388;2023-11-19T04:35:55;93763.38;;;2.44;100.00
10261;BME280;5175;42.606;23.388;2023-11-19T04:38:22;93780.09;;;2.49;100.00
10261;BME280;5175;42.606;23.388;2023-11-19T04:40:48;93775.91;;;2.48;100.00
10261;BME280;5175;42.606;23.388;2023-11-19T04:43:15;93773.72;;;2.45;100.00
10261;BME280;5175;42.606;23.388;2023-11-19T04:45:43;93772.44;;;2.36;100.00
10261;BME280;5175;42.606;23.388;2023-11-19T04:48:10;93775.91;;;2.48;100.00
10261;BME280;5175;42.606;23.388;2023-11-19T04:50:37;93764.78;;;2.58;100.00
10261;BME280;5175;42.606;23.388;2023-11-19T04:53:04;93773.47;;;2.70;100.00
10261;BME280;5175;42.606;23.388;2023-11-19T04:55:31;93766.84;;;2.56;100.00
10261;BME280;5175;42.606;23.388;2023-11-19T04:57:58;93776.22;;;2.52;100.00
10261;BME280;5175;42.606;23.388;2023-11-19T05:00:24;93766.94;;;2.49;100.00
10261;BME280;5175;42.606;23.388;2023-11-19T05:02:52;93756.88;;;2.35;100.00
10261;BME280;5175;42.606;23.388;2023-11-19T05:05:19;93768.31;;;2.29;100.00
10261;BME280;5175;42.606;23.388;2023-11-19T05:07:46;93774.50;;;2.34;100.00
10261;BME280;5175;42.606;23.388;2023-11-19T05:10:12;93780.56;;;2.35;100.00
10261;BME280;5175;42.606;23.388;2023-11-19T05:12:39;93787.44;;;2.24;100.00
10261;BME280;5175;42.606;23.388;2023-11-19T05:15:07;93788.34;;;2.18;100.00
10261;BME280;5175;42.606;23.388;2023-11-19T05:17:33;93796.50;;;2.28;100.00
10261;BME280;5175;42.606;23.388;2023-11-19T05:20:01;93797.50;;;2.27;100.00
10261;BME280;5175;42.606;23.388;2023-11-19T05:22:28;93792.81;;;2.29;100.00
10261;BME280;5175;42.606;23.388;2023-11-19T05:24:54;93794.31;;;2.37;100.00
10261;BME280;5175;42.606;23.388;2023-11-19T05:27:21;93803.78;;;2.26;100.00
10261;BME280;5175;42.606;23.388;2023-11-19T05:29:49;93794.31;;;2.25;100.00
10261;BME280;5175;42.606;23.388;2023-11-19T05:32:15;93794.50;;;2.24;100.00
10261;BME280;5175;42.606;23.388;2023-11-19T05:34:42;93789.03;;;2.25;100.00
10261;BME280;5175;42.606;23.388;2023-11-19T05:37:10;93789.84;;;2.26;100.00
10261;BME280;5175;42.606;23.388;2023-11-19T05:39:37;93792.13;;;2.22;100.00
10261;BME280;5175;42.606;23.388;2023-11-19T05:42:04;93793.16;;;2.33;100.00
10261;BME280;5175;42.606;23.388;2023-11-19T05:44:31;93782.41;;;2.23;100.00
10261;BME280;5175;42.606;23.388;2023-11-19T05:46:58;93783.53;;;2.15;100.00
10261;BME280;5175;42.606;23.388;2023-11-19T05:49:24;93786.38;;;2.14;100.00
10261;BME280;5175;42.606;23.388;2023-11-19T05:51:51;93777.66;;;2.13;100.00
10261;BME280;5175;42.606;23.388;2023-11-19T05:54:22;93779.72;;;2.11;100.00
10261;BME280;5175;42.606;23.388;2023-11-19T05:56:49;93776.53;;;2.09;100.00
10261;BME280;5175;42.606;23.388;2023-11-19T05:59:16;93773.34;;;2.07;100.00
10261;BME280;5175;42.606;23.388;2023-11-19T06:01:43;93781.22;;;2.07;100.00
10261;BME280;5175;42.606;23.388;2023-11-19T06:04:09;93807.09;;;2.10;100.00
10261;BME280;5175;42.606;23.388;2023-11-19T06:06:36;93810.50;;;1.99;100.00
10261;BME280;5175;42.606;23.388;2023-11-19T06:09:03;93811.19;;;2.06;100.00
10261;BME280;5175;42.606;23.388;2023-11-19T06:11:33;93808.09;;;2.09;100.00
10261;BME280;5175;42.606;23.388;2023-11-19T06:14:01;93819.31;;;2.05;100.00
10261;BME280;5175;42.606;23.388;2023-11-19T06:16:31;93817.81;;;2.09;100.00
10261;BME280;5175;42.606;23.388;2023-11-19T06:18:57;93805.00;;;2.01;100.00
10261;BME280;5175;42.606;23.388;2023-11-19T06:21:24;93818.16;;;2.01;100.00
10261;BME280;5175;42.606;23.388;2023-11-19T06:23:51;93818.28;;;2.06;100.00
10261;BME280;5175;42.606;23.388;2023-11-19T06:26:18;93809.94;;;2.09;100.00
10261;BME280;5175;42.606;23.388;2023-11-19T06:28:48;93808.22;;;2.14;100.00
10261;BME280;5175;42.606;23.388;2023-11-19T06:31:15;93811.88;;;2.13;100.00
10261;BME280;5175;42.606;23.388;2023-11-19T06:33:42;93804.47;;;2.10;100.00
10261;BME280;5175;42.606;23.388;2023-11-19T06:36:09;93813.19;;;2.22;100.00
10261;BME280;5175;42.606;23.388;2023-11-19T06:38:35;93797.97;;;2.36;100.00
10261;BME280;5175;42.606;23.388;2023-11-19T06:41:07;93799.31;;;2.27;100.00
10261;BME280;5175;42.606;23.388;2023-11-19T06:43:33;93804.03;;;2.36;100.00
10261;BME280;5175;42.606;23.388;2023-11-19T06:46:01;93804.91;;;2.19;100.00
10261;BME280;5175;42.606;23.388;2023-11-19T06:48:31;93804.25;;;2.23;100.00
10261;BME280;5175;42.606;23.388;2023-11-19T06:50:57;93818.88;;;2.19;100.00
10261;BME280;5175;42.606;23.388;2023-11-19T06:53:24;93828.16;;;2.22;100.00
10261;BME280;5175;42.606;23.388;2023-11-19T06:55:53;93821.44;;;2.26;100.00
10261;BME280;5175;42.606;23.388;2023-11-19T06:58:20;93825.88;;;2.37;100.00
10261;BME280;5175;42.606;23.388;2023-11-19T07:00:46;93831.75;;;2.50;100.00
10261;BME280;5175;42.606;23.388;2023-11-19T07:03:16;93829.03;;;2.69;100.00
10261;BME280;5175;42.606;23.388;2023-11-19T07:05:43;93826.84;;;2.89;100.00
10261;BME280;5175;42.606;23.388;2023-11-19T07:08:09;93838.63;;;3.09;100.00
10261;BME280;5175;42.606;23.388;2023-11-19T07:10:36;93847.66;;;3.25;100.00
10261;BME280;5175;42.606;23.388;2023-11-19T07:13:03;93842.66;;;3.00;100.00
10261;BME280;5175;42.606;23.388;2023-11-19T07:15:31;93845.41;;;2.59;100.00
10261;BME280;5175;42.606;23.388;2023-11-19T07:17:58;93865.31;;;2.78;100.00
10261;BME280;5175;42.606;23.388;2023-11-19T07:20:26;93856.81;;;3.11;100.00
10261;BME280;5175;42.606;23.388;2023-11-19T07:22:53;93868.66;;;2.97;100.00
10261;BME280;5175;42.606;23.388;2023-11-19T07:25:20;93875.28;;;3.11;100.00
10261;BME280;5175;42.606;23.388;2023-11-19T07:27:47;93869.91;;;2.94;100.00
10261;BME280;5175;42.606;23.388;2023-11-19T07:30:14;93864.19;;;2.97;100.00
10261;BME280;5175;42.606;23.388;2023-11-19T07:32:41;93867.63;;;2.86;100.00
10261;BME280;5175;42.606;23.388;2023-11-19T07:35:08;93871.16;;;2.80;100.00
10261;BME280;5175;42.606;23.388;2023-11-19T07:37:36;93871.50;;;2.61;100.00
10261;BME280;5175;42.606;23.388;2023-11-19T07:40:03;93886.59;;;2.53;100.00
10261;BME280;5175;42.606;23.388;2023-11-19T07:42:30;93864.84;;;2.70;100.00
10261;BME280;5175;42.606;23.388;2023-11-19T07:44:57;93880.66;;;2.70;100.00
10261;BME280;5175;42.606;23.388;2023-11-19T07:47:24;93900.25;;;2.74;100.00
10261;BME280;5175;42.606;23.388;2023-11-19T07:49:51;93899.00;;;2.76;100.00
10261;BME280;5175;42.606;23.388;2023-11-19T07:52:18;93872.09;;;2.74;100.00
10261;BME280;5175;42.606;23.388;2023-11-19T07:54:46;93890.66;;;3.02;100.00
10261;BME280;5175;42.606;23.388;2023-11-19T07:57:13;93885.59;;;3.36;99.23
10261;BME280;5175;42.606;23.388;2023-11-19T07:59:40;93883.72;;;3.48;95.69
10261;BME280;5175;42.606;23.388;2023-11-19T08:02:06;93884.75;;;3.47;94.20
10261;BME280;5175;42.606;23.388;2023-11-19T08:04:33;93882.59;;;3.32;94.37
10261;BME280;5175;42.606;23.388;2023-11-19T08:07:00;93894.63;;;3.51;95.66
10261;BME280;5175;42.606;23.388;2023-11-19T08:09:27;93896.56;;;3.56;93.68
10261;BME280;5175;42.606;23.388;2023-11-19T08:11:55;93892.53;;;3.53;93.73
10261;BME280;5175;42.606;23.388;2023-11-19T08:14:21;93892.19;;;3.61;93.97
10261;BME280;5175;42.606;23.388;2023-11-19T08:16:48;93894.72;;;3.56;92.86
10261;BME280;5175;42.606;23.388;2023-11-19T08:19:15;93899.25;;;3.84;91.58
10261;BME280;5175;42.606;23.388;2023-11-19T08:21:42;93910.81;;;3.95;90.25
10261;BME280;5175;42.606;23.388;2023-11-19T08:24:09;93904.97;;;3.93;89.35
10261;BME280;5175;42.606;23.388;2023-11-19T08:26:35;93898.16;;;3.97;89.46
10261;BME280;5175;42.606;23.388;2023-11-19T08:29:03;93904.09;;;4.04;89.31
10261;BME280;5175;42.606;23.388;2023-11-19T08:31:30;93913.16;;;4.08;88.63
10261;BME280;5175;42.606;23.388;2023-11-19T08:33:57;93911.97;;;3.87;89.33
10261;BME280;5175;42.606;23.388;2023-11-19T08:36:23;93913.44;;;3.95;90.23
10261;BME280;5175;42.606;23.388;2023-11-19T08:38:50;93909.09;;;3.89;90.37
10261;BME280;5175;42.606;23.388;2023-11-19T08:41:17;93906.75;;;4.04;90.08
10261;BME280;5175;42.606;23.388;2023-11-19T08:43:44;93915.16;;;3.89;91.10
10261;BME280;5175;42.606;23.388;2023-11-19T08:46:13;93927.19;;;3.97;91.28
10261;BME280;5175;42.606;23.388;2023-11-19T08:48:39;93920.41;;;4.01;91.39
10261;BME280;5175;42.606;23.388;2023-11-19T08:51:06;93923.16;;;4.34;89.80
10261;BME280;5175;42.606;23.388;2023-11-19T08:53:33;93913.75;;;4.55;88.57
10261;BME280;5175;42.606;23.388;2023-11-19T08:56:00;93904.66;;;4.62;88.55
10261;BME280;5175;42.606;23.388;2023-11-19T08:58:28;93915.34;;;4.56;93.24
10261;BME280;5175;42.606;23.388;2023-11-19T09:00:54;93930.91;;;4.69;90.38
10261;BME280;5175;42.606;23.388;2023-11-19T09:03:22;93928.34;;;4.74;90.81
10261;BME280;5175;42.606;23.388;2023-11-19T09:05:51;93916.13;;;4.84;98.86
10261;BME280;5175;42.606;23.388;2023-11-19T09:08:17;93908.09;;;4.96;88.56
10261;BME280;5175;42.606;23.388;2023-11-19T09:10:44;93905.19;;;5.14;85.70
10261;BME280;5175;42.606;23.388;2023-11-19T09:13:11;93908.75;;;5.03;84.29
10261;BME280;5175;42.606;23.388;2023-11-19T09:15:37;93882.84;;;4.88;92.67
10261;BME280;5175;42.606;23.388;2023-11-19T09:18:04;93866.59;;;4.63;86.53
10261;BME280;5175;42.606;23.388;2023-11-19T09:20:33;93865.97;;;4.89;89.76
10261;BME280;5175;42.606;23.388;2023-11-19T09:23:03;93881.91;;;4.94;84.58
10261;BME280;5175;42.606;23.388;2023-11-19T09:25:30;93885.03;;;4.91;86.11
10261;BME280;5175;42.606;23.388;2023-11-19T09:27:57;93887.16;;;5.28;88.76
10261;BME280;5175;42.606;23.388;2023-11-19T09:30:24;93916.06;;;5.34;84.45
10261;BME280;5175;42.606;23.388;2023-11-19T09:32:50;93925.16;;;5.22;82.40
10261;BME280;5175;42.606;23.388;2023-11-19T09:35:17;93914.34;;;4.73;83.09
10261;BME280;5175;42.606;23.388;2023-11-19T09:37:45;93882.31;;;4.86;82.85
10261;BME280;5175;42.606;23.388;2023-11-19T09:40:12;93891.03;;;4.87;82.64
10261;BME280;5175;42.606;23.388;2023-11-19T09:42:43;93871.50;;;4.71;82.45
10261;BME280;5175;42.606;23.388;2023-11-19T09:45:13;93869.63;;;4.88;82.18
10261;BME280;5175;42.606;23.388;2023-11-19T09:47:42;93868.91;;;5.10;81.28
10261;BME280;5175;42.606;23.388;2023-11-19T09:50:10;93863.16;;;5.34;79.83
10261;BME280;5175;42.606;23.388;2023-11-19T09:52:41;93843.63;;;5.35;80.10
10261;BME280;5175;42.606;23.388;2023-11-19T09:55:09;93840.16;;;5.13;81.07
10261;BME280;5175;42.606;23.388;2023-11-19T09:57:38;93839.63;;;5.33;81.49
10261;BME280;5175;42.606;23.388;2023-11-19T10:00:06;93835.88;;;5.29;79.99
10261;BME280;5175;42.606;23.388;2023-11-19T10:02:33;93846.75;;;5.32;81.03
10261;BME280;5175;42.606;23.388;2023-11-19T10:05:04;93835.56;;;5.25;79.94
10261;BME280;5175;42.606;23.388;2023-11-19T10:07:32;93835.34;;;4.93;82.30
10261;BME280;5175;42.606;23.388;2023-11-19T10:09:59;93852.66;;;4.68;83.66
10261;BME280;5175;42.606;23.388;2023-11-19T10:12:28;93841.84;;;4.53;83.89
10261;BME280;5175;42.606;23.388;2023-11-19T10:14:56;93848.59;;;4.60;84.27
10261;BME280;5175;42.606;23.388;2023-11-19T10:17:27;93836.66;;;4.58;84.46
10261;BME280;5175;42.606;23.388;2023-11-19T10:19:54;93838.88;;;4.99;85.06
10261;BME280;5175;42.606;23.388;2023-11-19T10:22:22;93845.13;;;5.10;83.08
10261;BME280;5175;42.606;23.388;2023-11-19T10:24:49;93864.50;;;4.98;80.98
10261;BME280;5175;42.606;23.388;2023-11-19T10:27:16;93856.13;;;4.85;82.45
10261;BME280;5175;42.606;23.388;2023-11-19T10:29:46;93857.41;;;4.66;81.51
10261;BME280;5175;42.606;23.388;2023-11-19T10:32:13;93855.38;;;4.23;84.14
10261;BME280;5175;42.606;23.388;2023-11-19T10:34:40;93835.34;;;4.27;83.78
10261;BME280;5175;42.606;23.388;2023-11-19T10:37:08;93822.50;;;4.64;83.58
10261;BME280;5175;42.606;23.388;2023-11-19T10:39:53;93822.97;;;4.77;81.99
10261;BME280;5175;42.606;23.388;2023-11-19T10:42:20;93816.72;;;4.67;81.08
10261;BME280;5175;42.606;23.388;2023-11-19T10:44:49;93823.75;;;4.78;81.50
10261;BME280;5175;42.606;23.388;2023-11-19T10:47:18;93826.47;;;4.99;80.33
10261;BME280;5175;42.606;23.388;2023-11-19T10:49:46;93833.91;;;4.86;79.29
10261;BME280;5175;42.606;23.388;2023-11-19T10:52:17;93833.03;;;4.97;79.31
10261;BME280;5175;42.606;23.388;2023-11-19T10:54:49;93825.44;;;5.00;79.62
10261;BME280;5175;42.606;23.388;2023-11-19T10:57:19;93840.88;;;4.75;79.60
10261;BME280;5175;42.606;23.388;2023-11-19T10:59:48;93830.88;;;5.11;80.25
10261;BME280;5175;42.606;23.388;2023-11-19T11:02:21;93826.13;;;5.13;79.08
10261;BME280;5175;42.606;23.388;2023-11-19T11:04:49;93832.78;;;5.37;76.36
10261;BME280;5175;42.606;23.388;2023-11-19T11:07:19;93835.94;;;5.34;77.72
10261;BME280;5175;42.606;23.388;2023-11-19T11:09:47;93818.66;;;5.26;75.86
10261;BME280;5175;42.606;23.388;2023-11-19T11:12:17;93827.69;;;5.30;77.30
10261;BME280;5175;42.606;23.388;2023-11-19T11:14:50;93816.06;;;5.31;78.04
10261;BME280;5175;42.606;23.388;2023-11-19T11:17:19;93811.69;;;5.63;76.53
10261;BME280;5175;42.606;23.388;2023-11-19T11:19:50;93814.47;;;5.95;76.16
10261;BME280;5175;42.606;23.388;2023-11-19T11:22:17;93819.56;;;6.02;74.24
10261;BME280;5175;42.606;23.388;2023-11-19T11:25:06;93811.56;;;5.97;72.86
10261;BME280;5175;42.606;23.388;2023-11-19T11:28:05;93814.97;;;6.19;73.08
10261;BME280;5175;42.606;23.388;2023-11-19T11:30:46;93821.34;;;6.50;73.42
10261;BME280;5175;42.606;23.388;2023-11-19T11:33:28;93812.03;;;6.15;71.97
10261;BME280;5175;42.606;23.388;2023-11-19T11:36:06;93827.47;;;6.23;72.89
10261;BME280;5175;42.606;23.388;2023-11-19T11:38:37;93819.06;;;6.32;71.53
10261;BME280;5175;42.606;23.388;2023-11-19T11:41:18;93816.38;;;6.26;71.76
10261;BME280;5175;42.606;23.388;2023-11-19T11:43:46;93811.94;;;6.37;71.71
10261;BME280;5175;42.606;23.388;2023-11-19T11:49:28;93789.13;;;6.31;74.58
10261;BME280;5175;42.606;23.388;2023-11-19T11:52:00;93785.84;;;6.51;76.74
10261;BME280;5175;42.606;23.388;2023-11-19T11:54:28;93796.75;;;6.96;74.82
10261;BME280;5175;42.606;23.388;2023-11-19T11:57:17;93813.59;;;7.17;70.12
10261;BME280;5175;42.606;23.388;2023-11-19T11:59:47;93806.81;;;7.31;70.42
10261;BME280;5175;42.606;23.388;2023-11-19T12:02:16;93815.34;;;7.43;67.31
10261;BME280;5175;42.606;23.388;2023-11-19T12:04:46;93786.56;;;7.20;69.45
10261;BME280;5175;42.606;23.388;2023-11-19T12:07:16;93816.88;;;7.29;68.28
10261;BME280;5175;42.606;23.388;2023-11-19T12:09:47;93808.44;;;7.37;67.81
10261;BME280;5175;42.606;23.388;2023-11-19T12:12:18;93809.47;;;7.31;68.33
10261;BME280;5175;42.606;23.388;2023-11-19T12:15:03;93805.84;;;7.05;68.41
10261;BME280;5175;42.606;23.388;2023-11-19T12:17:41;93796.88;;;7.11;68.38
10261;BME280;5175;42.606;23.388;2023-11-19T12:20:12;93792.47;;;7.32;70.76
10261;BME280;5175;42.606;23.388;2023-11-19T12:22:39;93786.97;;;7.48;70.59
10261;BME280;5175;42.606;23.388;2023-11-19T12:25:07;93788.06;;;7.52;66.26
10261;BME280;5175;42.606;23.388;2023-11-19T12:27:35;93787.03;;;7.58;64.66
10261;BME280;5175;42.606;23.388;2023-11-19T12:30:02;93786.72;;;7.55;63.64
10261;BME280;5175;42.606;23.388;2023-11-19T12:32:37;93784.69;;;7.72;64.79
10261;BME280;5175;42.606;23.388;2023-11-19T12:35:05;93777.88;;;8.06;63.91
10261;BME280;5175;42.606;23.388;2023-11-19T12:37:33;93764.84;;;8.00;64.33
10261;BME280;5175;42.606;23.388;2023-11-19T12:40:00;93764.59;;;8.11;63.68
10261;BME280;5175;42.606;23.388;2023-11-19T12:42:37;93765.22;;;8.54;67.65
10261;BME280;5175;42.606;23.388;2023-11-19T12:45:04;93767.88;;;8.64;62.98
10261;BME280;5175;42.606;23.388;2023-11-19T12:47:31;93767.34;;;8.67;63.39
10261;BME280;5175;42.606;23.388;2023-11-19T12:49:58;93763.88;;;8.41;62.88
10261;BME280;5175;42.606;23.388;2023-11-19T12:52:25;93764.69;;;8.62;63.34
10261;BME280;5175;42.606;23.388;2023-11-19T12:54:53;93758.03;;;8.54;63.85
10261;BME280;5175;42.606;23.388;2023-11-19T12:57:20;93754.81;;;8.27;63.95
10261;BME280;5175;42.606;23.388;2023-11-19T12:59:55;93776.91;;;8.68;61.68
10261;BME280;5175;42.606;23.388;2023-11-19T13:02:22;93771.31;;;8.49;65.88
10261;BME280;5175;42.606;23.388;2023-11-19T13:04:49;93771.56;;;8.58;64.65
10261;BME280;5175;42.606;23.388;2023-11-19T13:07:20;93762.53;;;8.84;62.90
10261;BME280;5175;42.606;23.388;2023-11-19T13:09:47;93764.91;;;9.06;64.15
10261;BME280;5175;42.606;23.388;2023-11-19T13:12:15;93762.75;;;9.13;60.68
10261;BME280;5175;42.606;23.388;2023-11-19T13:14:42;93758.16;;;9.38;61.57